Time;durP1;ratioP1;P1;durP2;ratioP2;P2;SDS_P1;SDS_P2;PMS_P1;PMS_P2;Temp;Humidity;BMP_temperature;BMP_pressure;BME280_temperature;BME280_humidity;BME280_pressure;Samples;Min_cycle;Max_cycle;Signal;HPM_P1;HPM_P2
2021/12/18 00:00:57;;;;;;;;;;;20.80;44.80;;;;;;6259530;28;20427;-40
2021/12/18 00:04:00;;;;;;;;;;;21.30;44.40;;;;;;6257923;28;19963;-39
2021/12/18 00:07:02;;;;;;;;;;;20.80;44.90;;;;;;6263876;28;20027;-39
2021/12/18 00:10:05;;;;;;;;;;;21.10;44.80;;;;;;6257712;28;19931;-40
2021/12/18 00:13:06;;;;;;;;;;;20.70;44.70;;;;;;6257794;28;20015;-39
2021/12/18 00:16:08;;;;;;;;;;;20.50;44.70;;;;;;6263647;28;19936;-39
2021/12/18 00:19:09;;;;;;;;;;;20.80;44.90;;;;;;6258438;28;19929;-39
2021/12/18 00:22:11;;;;;;;;;;;21.20;44.90;;;;;;6257291;28;19928;-39
2021/12/18 00:25:13;;;;;;;;;;;20.90;45.10;;;;;;6258677;28;20050;-39
2021/12/18 00:28:17;;;;;;;;;;;20.80;44.80;;;;;;6242025;28;20039;-39
2021/12/18 00:31:19;;;;;;;;;;;21.20;44.80;;;;;;6257823;28;19928;-39
2021/12/18 00:34:22;;;;;;;;;;;20.70;44.90;;;;;;6259104;28;20030;-39
2021/12/18 00:37:23;;;;;;;;;;;21.00;45.10;;;;;;6236152;28;19961;-38
2021/12/18 00:40:29;;;;;;;;;;;20.80;44.90;;;;;;6257002;28;20836;-39
2021/12/18 00:43:35;;;;;;;;;;;20.90;45.00;;;;;;6256022;28;19931;-39
2021/12/18 00:46:41;;;;;;;;;;;21.30;45.00;;;;;;6254849;28;20012;-39
2021/12/18 00:49:43;;;;;;;;;;;21.30;44.90;;;;;;6233079;28;19920;-40
2021/12/18 00:52:46;;;;;;;;;;;20.70;45.00;;;;;;6255164;28;19929;-40
2021/12/18 00:55:52;;;;;;;;;;;20.80;44.90;;;;;;6254498;28;19925;-39
2021/12/18 00:58:53;;;;;;;;;;;21.30;45.30;;;;;;6256574;28;19971;-38
2021/12/18 01:01:55;;;;;;;;;;;20.80;45.00;;;;;;6256691;28;20783;-38
2021/12/18 01:04:57;;;;;;;;;;;20.70;45.10;;;;;;6260530;28;20002;-39
2021/12/18 01:07:59;;;;;;;;;;;20.70;45.00;;;;;;6257001;28;20009;-39
2021/12/18 01:11:22;;;;;;;;;;;20.60;44.90;;;;;;6260750;28;21558;-38
2021/12/18 01:14:42;;;;;;;;;;;20.70;44.90;;;;;;6265030;28;19936;-41
2021/12/18 01:24:16;;;;;;;;;;;20.80;44.90;;;;;;6260467;28;19950;-39
2021/12/18 01:27:17;;;;;;;;;;;21.00;45.10;;;;;;6262052;28;20034;-39
2021/12/18 01:30:19;;;;;;;;;;;21.10;45.10;;;;;;6262440;28;20042;-39
2021/12/18 01:33:21;;;;;;;;;;;20.90;45.10;;;;;;6261597;28;19928;-39
2021/12/18 01:36:23;;;;;;;;;;;20.90;45.10;;;;;;6256473;28;20067;-38
2021/12/18 01:39:24;;;;;;;;;;;21.10;45.20;;;;;;6261953;28;20023;-38
2021/12/18 01:43:13;;;;;;;;;;;21.20;45.30;;;;;;6261350;28;20015;-41
2021/12/18 01:46:16;;;;;;;;;;;20.80;45.00;;;;;;6248827;28;19978;-41
2021/12/18 01:52:33;;;;;;;;;;;20.70;45.10;;;;;;6265464;28;20051;-41
2021/12/18 01:55:36;;;;;;;;;;;21.10;45.30;;;;;;6262421;28;20035;-38
2021/12/18 01:58:37;;;;;;;;;;;20.70;44.90;;;;;;6262868;28;19960;-38
2021/12/18 02:01:38;;;;;;;;;;;20.70;45.00;;;;;;6260032;28;20043;-39
2021/12/18 02:04:40;;;;;;;;;;;20.40;45.00;;;;;;6257544;28;19928;-39
2021/12/18 02:07:43;;;;;;;;;;;20.60;45.00;;;;;;6263553;28;21614;-38
2021/12/18 02:10:48;;;;;;;;;;;20.70;45.10;;;;;;6258008;28;21207;-39
2021/12/18 02:20:38;;;;;;;;;;;21.40;45.20;;;;;;6263098;28;19925;-38
2021/12/18 02:23:41;;;;;;;;;;;20.80;45.20;;;;;;6255181;28;20108;-39
2021/12/18 02:26:42;;;;;;;;;;;20.60;44.90;;;;;;6257025;28;19978;-38
2021/12/18 02:29:44;;;;;;;;;;;20.90;45.20;;;;;;6259485;28;20113;-38
2021/12/18 02:32:45;;;;;;;;;;;20.80;45.10;;;;;;6255191;28;19972;-38
2021/12/18 02:35:49;;;;;;;;;;;20.90;45.30;;;;;;6255455;28;19928;-38
2021/12/18 02:42:08;;;;;;;;;;;20.60;45.00;;;;;;6243530;28;20439;-38
2021/12/18 02:45:12;;;;;;;;;;;20.50;44.80;;;;;;6257711;28;19980;-38
2021/12/18 02:48:14;;;;;;;;;;;20.40;44.90;;;;;;6258222;28;19924;-38
2021/12/18 02:51:17;;;;;;;;;;;21.30;45.40;;;;;;6258333;28;20153;-38
2021/12/18 02:54:18;;;;;;;;;;;20.90;45.20;;;;;;6254224;28;19971;-38
2021/12/18 02:57:20;;;;;;;;;;;20.60;45.20;;;;;;6254827;28;20283;-39
2021/12/18 03:00:23;;;;;;;;;;;20.40;44.70;;;;;;6255296;28;19967;-38
2021/12/18 03:03:28;;;;;;;;;;;21.10;45.30;;;;;;6255570;28;20534;-38
2021/12/18 03:06:34;;;;;;;;;;;20.50;45.00;;;;;;6254580;28;19928;-38
2021/12/18 03:25:54;;;;;;;;;;;20.70;45.10;;;;;;6256640;28;20443;-38
2021/12/18 03:28:55;;;;;;;;;;;20.60;45.10;;;;;;6258124;28;20465;-38
2021/12/18 03:31:57;;;;;;;;;;;20.90;45.40;;;;;;6251431;28;19932;-38
2021/12/18 03:34:58;;;;;;;;;;;20.30;45.00;;;;;;6252106;28;20015;-38
2021/12/18 03:38:00;;;;;;;;;;;20.90;45.30;;;;;;6257736;28;20021;-38
2021/12/18 03:41:01;;;;;;;;;;;20.50;45.10;;;;;;6258913;28;20007;-38
2021/12/18 03:44:03;;;;;;;;;;;20.50;45.10;;;;;;6259052;28;20339;-38
2021/12/18 03:47:04;;;;;;;;;;;20.50;45.10;;;;;;6262772;28;20383;-39
2021/12/18 03:50:06;;;;;;;;;;;20.60;45.20;;;;;;6262875;28;19975;-38
2021/12/18 03:53:08;;;;;;;;;;;20.90;45.00;;;;;;6260243;28;19982;-38
2021/12/18 03:56:11;;;;;;;;;;;20.80;45.30;;;;;;6257293;28;20051;-39
2021/12/18 03:59:12;;;;;;;;;;;20.50;45.00;;;;;;6256826;28;19957;-39
2021/12/18 04:02:14;;;;;;;;;;;20.40;45.00;;;;;;6259295;28;20124;-38
2021/12/18 04:05:15;;;;;;;;;;;20.20;45.00;;;;;;6259325;28;20039;-39
2021/12/18 04:08:17;;;;;;;;;;;20.30;44.90;;;;;;6244970;28;19965;-38
2021/12/18 04:11:21;;;;;;;;;;;20.20;45.00;;;;;;6255158;28;20418;-38
2021/12/18 04:14:22;;;;;;;;;;;20.50;45.10;;;;;;6262626;28;19963;-38
2021/12/18 04:17:23;;;;;;;;;;;20.40;45.10;;;;;;6265075;28;20559;-39
2021/12/18 04:20:27;;;;;;;;;;;20.30;45.10;;;;;;6261614;28;19989;-38
2021/12/18 04:23:29;;;;;;;;;;;20.80;45.10;;;;;;6239871;28;20427;-39
2021/12/18 04:26:30;;;;;;;;;;;20.90;45.30;;;;;;6256823;28;20381;-38
2021/12/18 04:29:31;;;;;;;;;;;20.30;45.00;;;;;;6263454;28;20343;-39
2021/12/18 04:32:33;;;;;;;;;;;20.70;45.30;;;;;;6259355;28;19924;-38
2021/12/18 04:35:34;;;;;;;;;;;20.30;45.20;;;;;;6260987;28;19928;-38
2021/12/18 04:38:36;;;;;;;;;;;20.50;45.30;;;;;;6259478;28;20023;-38
2021/12/18 04:41:42;;;;;;;;;;;20.70;45.20;;;;;;6255997;28;20041;-38
2021/12/18 04:44:44;;;;;;;;;;;20.30;44.40;;;;;;6257354;28;19966;-38
2021/12/18 04:47:45;;;;;;;;;;;20.50;45.00;;;;;;6241297;28;20023;-38
2021/12/18 04:50:47;;;;;;;;;;;20.70;45.30;;;;;;6262322;28;19970;-38
2021/12/18 04:53:49;;;;;;;;;;;20.70;45.30;;;;;;6261308;28;19935;-38
2021/12/18 04:56:50;;;;;;;;;;;20.60;45.30;;;;;;6253398;28;19928;-38
2021/12/18 04:59:51;;;;;;;;;;;20.40;45.10;;;;;;6253893;28;19932;-38
2021/12/18 05:02:54;;;;;;;;;;;20.40;45.10;;;;;;6249578;28;19924;-39
2021/12/18 05:05:56;;;;;;;;;;;20.20;45.10;;;;;;6258167;28;20481;-38
2021/12/18 05:08:58;;;;;;;;;;;20.50;45.10;;;;;;6252135;28;20362;-38
2021/12/18 05:11:59;;;;;;;;;;;20.90;44.80;;;;;;6253754;28;20357;-38
2021/12/18 05:15:01;;;;;;;;;;;20.70;45.40;;;;;;6255428;28;20051;-38
2021/12/18 05:18:02;;;;;;;;;;;20.30;44.50;;;;;;6261371;28;20007;-39
2021/12/18 05:21:03;;;;;;;;;;;20.40;45.30;;;;;;6257137;28;20788;-39
2021/12/18 05:24:06;;;;;;;;;;;20.30;45.10;;;;;;6255408;28;20043;-38
2021/12/18 05:27:07;;;;;;;;;;;20.40;45.20;;;;;;6253541;28;19931;-38
2021/12/18 05:30:10;;;;;;;;;;;20.30;45.20;;;;;;6253248;28;20039;-38
2021/12/18 05:33:12;;;;;;;;;;;20.10;44.90;;;;;;6250457;28;20039;-39
2021/12/18 05:36:31;;;;;;;;;;;20.20;45.10;;;;;;6250564;28;20538;-38
2021/12/18 05:39:32;;;;;;;;;;;20.10;45.10;;;;;;6249021;28;20342;-38
2021/12/18 05:42:36;;;;;;;;;;;20.40;45.10;;;;;;6249654;28;20119;-38
2021/12/18 05:45:38;;;;;;;;;;;20.40;45.20;;;;;;6252097;28;19924;-38
2021/12/18 05:48:40;;;;;;;;;;;21.10;45.50;;;;;;6251512;28;19924;-38
2021/12/18 05:51:42;;;;;;;;;;;20.70;45.30;;;;;;6255734;28;20023;-38
2021/12/18 05:54:44;;;;;;;;;;;20.30;45.10;;;;;;6251740;28;20021;-39
2021/12/18 05:57:46;;;;;;;;;;;20.50;45.40;;;;;;6244687;28;20077;-39
2021/12/18 06:00:47;;;;;;;;;;;20.40;45.20;;;;;;6245121;28;20471;-38
2021/12/18 06:03:48;;;;;;;;;;;20.30;45.00;;;;;;6246847;28;20449;-39
2021/12/18 06:06:50;;;;;;;;;;;20.50;45.10;;;;;;6248780;28;20402;-38
2021/12/18 06:09:52;;;;;;;;;;;20.70;45.30;;;;;;6243230;28;20811;-38
2021/12/18 06:12:53;;;;;;;;;;;20.30;45.00;;;;;;6246453;28;20286;-38
2021/12/18 06:15:55;;;;;;;;;;;20.10;45.00;;;;;;6249862;28;20426;-38
2021/12/18 06:18:56;;;;;;;;;;;21.10;45.60;;;;;;6251674;28;20057;-38
2021/12/18 06:21:57;;;;;;;;;;;20.30;45.20;;;;;;6253129;28;20848;-38
2021/12/18 06:24:59;;;;;;;;;;;20.30;45.20;;;;;;6253943;28;19924;-39
2021/12/18 06:28:01;;;;;;;;;;;20.10;45.10;;;;;;6249504;28;19928;-38
2021/12/18 06:31:02;;;;;;;;;;;20.20;45.10;;;;;;6249535;28;20847;-38
2021/12/18 06:34:03;;;;;;;;;;;20.30;45.00;;;;;;6248691;28;19924;-38
2021/12/18 06:37:05;;;;;;;;;;;20.00;44.90;;;;;;6245476;28;20269;-40
2021/12/18 06:40:07;;;;;;;;;;;20.30;45.20;;;;;;6243584;28;19938;-38
2021/12/18 06:43:12;;;;;;;;;;;20.20;45.00;;;;;;6248061;28;19928;-38
2021/12/18 06:46:13;;;;;;;;;;;20.50;45.10;;;;;;6252015;28;19929;-38
2021/12/18 06:49:15;;;;;;;;;;;20.90;45.50;;;;;;6250340;28;20507;-39
2021/12/18 06:52:16;;;;;;;;;;;20.40;45.20;;;;;;6247645;28;20490;-38
2021/12/18 06:55:18;;;;;;;;;;;20.10;45.10;;;;;;6249579;28;20026;-40
2021/12/18 06:58:19;;;;;;;;;;;20.20;45.20;;;;;;6248453;28;19981;-38
2021/12/18 07:01:21;;;;;;;;;;;20.70;45.30;;;;;;6235095;28;20207;-38
2021/12/18 07:04:23;;;;;;;;;;;20.40;45.20;;;;;;6229717;28;20934;-39
2021/12/18 07:07:24;;;;;;;;;;;20.10;45.00;;;;;;6226260;28;20295;-38
2021/12/18 07:10:26;;;;;;;;;;;20.40;45.20;;;;;;6230505;28;20134;-39
2021/12/18 07:13:28;;;;;;;;;;;20.60;45.30;;;;;;6230229;28;19946;-38
2021/12/18 07:16:29;;;;;;;;;;;20.10;45.00;;;;;;6210290;28;19936;-38
2021/12/18 07:19:30;;;;;;;;;;;20.30;45.10;;;;;;6233780;28;20209;-38
2021/12/18 07:22:32;;;;;;;;;;;20.10;45.10;;;;;;6213248;28;20197;-39
2021/12/18 07:25:33;;;;;;;;;;;20.00;45.00;;;;;;6231257;28;20165;-38
2021/12/18 07:28:35;;;;;;;;;;;20.30;45.20;;;;;;6235245;28;20483;-38
2021/12/18 07:31:36;;;;;;;;;;;20.10;45.00;;;;;;6235050;28;19924;-38
2021/12/18 07:34:37;;;;;;;;;;;20.10;45.00;;;;;;6233082;28;20859;-38
2021/12/18 07:37:39;;;;;;;;;;;20.10;45.10;;;;;;6237247;28;19934;-38
2021/12/18 07:40:41;;;;;;;;;;;20.30;45.20;;;;;;6232138;28;19929;-38
2021/12/18 07:43:43;;;;;;;;;;;20.00;45.00;;;;;;6227851;28;19928;-38
2021/12/18 07:46:44;;;;;;;;;;;20.10;45.00;;;;;;6234241;28;20393;-38
2021/12/18 07:49:46;;;;;;;;;;;20.50;45.10;;;;;;6233964;28;20166;-39
2021/12/18 07:52:48;;;;;;;;;;;20.10;45.00;;;;;;6236747;28;20721;-38
2021/12/18 07:55:49;;;;;;;;;;;19.90;44.70;;;;;;6232675;28;19928;-38
2021/12/18 07:58:51;;;;;;;;;;;20.40;45.10;;;;;;6230237;28;20257;-38
2021/12/18 08:01:53;;;;;;;;;;;20.80;45.30;;;;;;6230590;28;20885;-38
2021/12/18 08:04:54;;;;;;;;;;;20.50;44.90;;;;;;6231341;28;20695;-38
2021/12/18 08:07:55;;;;;;;;;;;20.10;45.10;;;;;;6232695;28;19928;-38
2021/12/18 08:10:57;;;;;;;;;;;20.10;45.10;;;;;;6234161;28;20150;-38
2021/12/18 08:13:59;;;;;;;;;;;20.50;44.60;;;;;;6227031;28;20204;-38
2021/12/18 08:17:02;;;;;;;;;;;20.20;45.10;;;;;;6230089;28;19935;-39
2021/12/18 08:20:04;;;;;;;;;;;20.70;45.30;;;;;;6230647;28;20071;-38
2021/12/18 08:23:06;;;;;;;;;;;20.20;44.80;;;;;;6229763;28;19975;-39
2021/12/18 08:26:08;;;;;;;;;;;20.00;44.80;;;;;;6231807;28;19965;-38
2021/12/18 08:29:09;;;;;;;;;;;20.30;45.20;;;;;;6231753;28;19949;-38
2021/12/18 08:32:10;;;;;;;;;;;20.00;44.90;;;;;;6232396;28;20002;-38
2021/12/18 08:35:12;;;;;;;;;;;20.00;44.90;;;;;;6231451;28;20346;-38
2021/12/18 08:38:13;;;;;;;;;;;20.00;45.00;;;;;;6232398;28;20121;-38
2021/12/18 08:41:16;;;;;;;;;;;19.90;44.90;;;;;;6234078;28;19928;-41
2021/12/18 08:44:17;;;;;;;;;;;20.40;45.10;;;;;;6230995;28;19924;-38
2021/12/18 08:47:19;;;;;;;;;;;20.00;44.90;;;;;;6231686;28;20673;-38
2021/12/18 08:50:21;;;;;;;;;;;20.70;45.20;;;;;;6229192;28;21047;-38
2021/12/18 08:53:22;;;;;;;;;;;20.00;44.80;;;;;;6227042;28;20200;-38
2021/12/18 08:56:24;;;;;;;;;;;20.00;44.90;;;;;;6226797;28;20515;-38
2021/12/18 08:59:25;;;;;;;;;;;20.10;44.90;;;;;;6224928;28;20248;-38
2021/12/18 09:02:27;;;;;;;;;;;20.40;45.10;;;;;;6231825;28;20502;-38
2021/12/18 09:05:29;;;;;;;;;;;20.20;44.80;;;;;;6235557;28;19924;-39
2021/12/18 09:08:30;;;;;;;;;;;20.00;44.70;;;;;;6228252;28;19924;-38
2021/12/18 09:11:32;;;;;;;;;;;20.20;44.90;;;;;;6228011;28;20838;-38
2021/12/18 09:14:33;;;;;;;;;;;20.10;44.80;;;;;;6230861;28;20067;-38
2021/12/18 09:17:35;;;;;;;;;;;20.10;44.90;;;;;;6230355;28;19928;-38
2021/12/18 09:20:36;;;;;;;;;;;20.50;44.90;;;;;;6228064;28;20081;-38
2021/12/18 09:23:38;;;;;;;;;;;20.10;44.70;;;;;;6229733;28;19975;-39
2021/12/18 09:26:40;;;;;;;;;;;20.20;44.70;;;;;;6231598;28;20043;-38
2021/12/18 09:29:41;;;;;;;;;;;20.40;44.70;;;;;;6227181;28;20010;-38
2021/12/18 09:32:43;;;;;;;;;;;20.20;44.40;;;;;;6229828;28;19924;-40
2021/12/18 09:35:45;;;;;;;;;;;20.60;44.60;;;;;;6242932;28;20311;-39
2021/12/18 09:38:46;;;;;;;;;;;20.40;44.40;;;;;;6230357;28;19931;-39
2021/12/18 09:41:49;;;;;;;;;;;20.20;44.30;;;;;;6226590;28;20184;-39
2021/12/18 09:44:51;;;;;;;;;;;20.20;44.20;;;;;;6223530;28;20008;-38
2021/12/18 09:47:53;;;;;;;;;;;20.40;44.10;;;;;;6211948;28;19924;-38
2021/12/18 09:50:57;;;;;;;;;;;21.10;44.50;;;;;;6226225;28;19924;-39
2021/12/18 09:53:58;;;;;;;;;;;20.50;44.20;;;;;;6224656;28;19925;-38
2021/12/18 09:57:01;;;;;;;;;;;20.70;44.20;;;;;;6227344;28;19925;-38
2021/12/18 10:00:04;;;;;;;;;;;20.80;44.20;;;;;;6221953;28;20592;-38
2021/12/18 10:03:12;;;;;;;;;;;20.50;43.90;;;;;;6207036;28;20006;-38
2021/12/18 10:06:28;;;;;;;;;;;20.20;43.40;;;;;;6226809;28;20192;-38
2021/12/18 10:09:32;;;;;;;;;;;20.50;43.80;;;;;;6211047;28;20482;-39
2021/12/18 10:12:33;;;;;;;;;;;20.90;44.00;;;;;;6222215;28;19928;-39
2021/12/18 10:15:36;;;;;;;;;;;20.30;43.70;;;;;;6229353;28;20274;-38
2021/12/18 10:18:37;;;;;;;;;;;20.50;43.60;;;;;;6213693;28;20274;-38
2021/12/18 10:21:53;;;;;;;;;;;21.10;43.90;;;;;;6229895;28;19931;-38
2021/12/18 10:25:04;;;;;;;;;;;20.60;43.70;;;;;;6227661;28;20544;-40
2021/12/18 10:28:08;;;;;;;;;;;20.60;43.60;;;;;;6228875;28;20227;-38
2021/12/18 10:31:10;;;;;;;;;;;20.60;43.60;;;;;;6212789;28;20284;-39
2021/12/18 10:34:13;;;;;;;;;;;20.60;43.60;;;;;;6227476;28;19967;-38
2021/12/18 10:37:16;;;;;;;;;;;20.90;43.70;;;;;;6231670;28;20049;-39
2021/12/18 10:40:18;;;;;;;;;;;20.90;43.60;;;;;;6231473;28;19924;-40
2021/12/18 10:43:19;;;;;;;;;;;20.70;43.70;;;;;;6222435;28;20451;-38
2021/12/18 10:46:21;;;;;;;;;;;20.60;43.60;;;;;;6224264;28;20600;-39
2021/12/18 10:49:23;;;;;;;;;;;20.60;43.40;;;;;;6227550;28;20065;-39
2021/12/18 10:52:38;;;;;;;;;;;20.70;43.40;;;;;;6230072;28;19924;-38
2021/12/18 10:55:43;;;;;;;;;;;20.90;43.50;;;;;;6229331;28;20096;-38
2021/12/18 10:58:48;;;;;;;;;;;20.80;43.40;;;;;;6234917;28;20352;-39
2021/12/18 11:01:50;;;;;;;;;;;20.90;43.60;;;;;;6215213;28;20352;-38
2021/12/18 11:04:52;;;;;;;;;;;20.80;43.30;;;;;;6235894;28;20551;-39
2021/12/18 11:08:07;;;;;;;;;;;21.10;43.50;;;;;;6231874;28;20392;-38
2021/12/18 11:14:21;;;;;;;;;;;20.60;43.20;;;;;;6236245;28;20237;-38
2021/12/18 11:17:22;;;;;;;;;;;21.10;42.90;;;;;;6223271;28;20160;-38
2021/12/18 11:20:24;;;;;;;;;;;20.90;43.20;;;;;;6229188;28;19991;-38
2021/12/18 11:23:31;;;;;;;;;;;21.00;43.30;;;;;;6232202;28;19962;-38
2021/12/18 11:26:35;;;;;;;;;;;21.10;43.30;;;;;;6235829;28;19928;-38
2021/12/18 11:29:44;;;;;;;;;;;21.00;43.30;;;;;;6220600;28;20047;-38
2021/12/18 11:32:54;;;;;;;;;;;20.70;42.90;;;;;;6235024;28;19991;-38
2021/12/18 11:35:56;;;;;;;;;;;20.90;43.00;;;;;;6215950;28;20538;-38
2021/12/18 11:38:58;;;;;;;;;;;21.20;43.20;;;;;;6229329;28;20606;-39
2021/12/18 11:41:59;;;;;;;;;;;21.00;43.20;;;;;;6233049;28;19934;-38
2021/12/18 11:45:03;;;;;;;;;;;21.30;44.00;;;;;;6236322;28;19925;-39
2021/12/18 11:48:05;;;;;;;;;;;21.20;43.20;;;;;;6233913;28;20571;-39
2021/12/18 11:51:12;;;;;;;;;;;21.40;43.30;;;;;;6235706;28;20530;-39
2021/12/18 11:54:29;;;;;;;;;;;21.90;43.50;;;;;;6235977;28;20384;-39
2021/12/18 11:57:39;;;;;;;;;;;21.10;42.90;;;;;;6214706;28;19932;-39
2021/12/18 12:00:44;;;;;;;;;;;21.20;43.60;;;;;;6232940;28;20013;-39
2021/12/18 12:03:54;;;;;;;;;;;21.40;43.10;;;;;;6232813;28;19962;-39
2021/12/18 12:07:16;;;;;;;;;;;21.50;43.20;;;;;;6215755;28;19925;-39
2021/12/18 12:10:23;;;;;;;;;;;21.20;43.00;;;;;;6232933;28;20031;-40
2021/12/18 12:13:49;;;;;;;;;;;21.00;42.70;;;;;;6229360;28;19980;-39
2021/12/18 12:17:05;;;;;;;;;;;21.30;42.90;;;;;;6232288;28;20166;-38
2021/12/18 12:20:08;;;;;;;;;;;21.00;42.80;;;;;;6216649;28;19928;-39
2021/12/18 12:23:10;;;;;;;;;;;21.50;43.00;;;;;;6235845;28;19928;-38
2021/12/18 12:26:21;;;;;;;;;;;21.90;43.30;;;;;;6236199;28;20141;-38
2021/12/18 12:29:22;;;;;;;;;;;21.50;42.90;;;;;;6233922;28;20438;-39
2021/12/18 12:32:24;;;;;;;;;;;21.20;42.90;;;;;;6232921;28;20628;-39
2021/12/18 12:35:26;;;;;;;;;;;21.60;43.10;;;;;;6233761;28;20464;-38
2021/12/18 12:38:28;;;;;;;;;;;21.30;42.90;;;;;;6239462;28;19946;-39
2021/12/18 12:41:33;;;;;;;;;;;21.20;42.80;;;;;;6214995;28;20491;-38
2021/12/18 12:44:41;;;;;;;;;;;21.20;42.70;;;;;;6212504;28;20315;-38
2021/12/18 12:47:52;;;;;;;;;;;21.50;42.90;;;;;;6215973;28;20041;-39
2021/12/18 12:50:55;;;;;;;;;;;21.80;43.00;;;;;;6229177;28;20972;-39
2021/12/18 12:53:56;;;;;;;;;;;21.20;42.80;;;;;;6230988;28;19945;-40
2021/12/18 12:57:13;;;;;;;;;;;21.80;43.20;;;;;;6225944;28;20493;-39
2021/12/18 13:00:29;;;;;;;;;;;21.30;42.60;;;;;;6212752;28;20034;-38
2021/12/18 13:03:32;;;;;;;;;;;21.30;42.60;;;;;;6233401;28;20327;-39
2021/12/18 13:06:34;;;;;;;;;;;21.40;42.60;;;;;;6222447;28;19998;-39
2021/12/18 13:09:43;;;;;;;;;;;21.40;42.70;;;;;;6222559;28;19932;-39
2021/12/18 13:12:51;;;;;;;;;;;21.10;42.50;;;;;;6210839;28;20215;-39
2021/12/18 13:15:54;;;;;;;;;;;21.30;42.50;;;;;;6229508;28;19941;-38
2021/12/18 13:18:58;;;;;;;;;;;21.20;42.50;;;;;;6232842;28;20779;-39
2021/12/18 13:22:10;;;;;;;;;;;21.30;42.70;;;;;;6230183;28;20211;-39
2021/12/18 13:25:13;;;;;;;;;;;21.50;42.60;;;;;;6227928;28;19928;-39
2021/12/18 13:28:14;;;;;;;;;;;21.80;42.80;;;;;;6231519;28;19959;-39
2021/12/18 13:31:16;;;;;;;;;;;21.50;42.70;;;;;;6232232;28;19939;-39
2021/12/18 13:34:19;;;;;;;;;;;21.40;42.60;;;;;;6232804;28;19924;-40
2021/12/18 13:37:21;;;;;;;;;;;21.70;42.70;;;;;;6216153;28;19928;-38
2021/12/18 13:40:22;;;;;;;;;;;21.30;42.60;;;;;;6233209;28;20335;-39
2021/12/18 13:43:24;;;;;;;;;;;21.70;42.80;;;;;;6226577;28;20447;-40
2021/12/18 13:46:28;;;;;;;;;;;21.40;42.50;;;;;;6202856;28;20349;-39
2021/12/18 13:49:49;;;;;;;;;;;21.80;43.30;;;;;;6227156;28;20392;-38
2021/12/18 13:53:11;;;;;;;;;;;21.30;42.30;;;;;;6200919;28;20346;-38
2021/12/18 13:56:12;;;;;;;;;;;21.60;42.60;;;;;;6227477;28;21359;-39
2021/12/18 13:59:14;;;;;;;;;;;22.10;42.90;;;;;;6227725;28;19928;-39
2021/12/18 14:02:20;;;;;;;;;;;21.50;42.50;;;;;;6229019;28;19953;-39
2021/12/18 14:05:21;;;;;;;;;;;21.60;42.50;;;;;;6226131;28;20311;-39
2021/12/18 14:08:24;;;;;;;;;;;21.50;42.70;;;;;;6223894;28;20444;-39
2021/12/18 14:11:27;;;;;;;;;;;21.50;42.60;;;;;;6229175;28;20258;-40
2021/12/18 14:14:33;;;;;;;;;;;21.50;42.50;;;;;;6228275;28;19935;-38
2021/12/18 14:17:35;;;;;;;;;;;21.90;42.10;;;;;;6211394;28;20159;-38
2021/12/18 14:20:45;;;;;;;;;;;21.50;42.50;;;;;;6230650;28;20493;-39
2021/12/18 14:23:47;;;;;;;;;;;21.30;42.30;;;;;;6229522;28;20182;-38
2021/12/18 14:26:56;;;;;;;;;;;21.60;42.70;;;;;;6229684;28;20168;-39
2021/12/18 14:29:58;;;;;;;;;;;22.30;42.70;;;;;;6231723;28;19928;-38
2021/12/18 14:33:05;;;;;;;;;;;21.60;42.60;;;;;;6230548;28;20300;-38
2021/12/18 14:36:06;;;;;;;;;;;21.50;42.40;;;;;;6204135;28;19931;-40
2021/12/18 14:39:08;;;;;;;;;;;21.80;42.80;;;;;;6233030;28;19924;-39
2021/12/18 14:42:15;;;;;;;;;;;21.50;42.50;;;;;;6225047;28;20005;-39
2021/12/18 14:45:18;;;;;;;;;;;22.00;42.60;;;;;;6226035;28;20490;-39
2021/12/18 14:48:27;;;;;;;;;;;21.60;42.30;;;;;;6209699;28;19934;-39
2021/12/18 14:51:29;;;;;;;;;;;21.70;42.30;;;;;;6204869;28;20581;-39
2021/12/18 14:54:45;;;;;;;;;;;21.50;42.40;;;;;;6221997;28;20035;-39
2021/12/18 14:57:55;;;;;;;;;;;21.60;42.30;;;;;;6206359;28;20127;-38
2021/12/18 15:00:58;;;;;;;;;;;21.80;42.40;;;;;;6204355;28;20242;-39
2021/12/18 15:04:00;;;;;;;;;;;21.50;42.20;;;;;;6209487;28;20370;-39
2021/12/18 15:07:02;;;;;;;;;;;21.50;42.40;;;;;;6224830;28;20620;-39
2021/12/18 15:10:04;;;;;;;;;;;21.60;42.30;;;;;;6223880;28;20306;-39
2021/12/18 15:13:11;;;;;;;;;;;21.70;42.40;;;;;;6221124;28;20367;-39
2021/12/18 15:16:17;;;;;;;;;;;21.90;42.30;;;;;;6221972;28;19928;-39
2021/12/18 15:19:21;;;;;;;;;;;21.50;42.10;;;;;;6223380;28;19986;-39
2021/12/18 15:22:22;;;;;;;;;;;21.50;42.10;;;;;;6228953;28;19929;-39
2021/12/18 15:25:24;;;;;;;;;;;21.60;42.30;;;;;;6228768;28;20259;-39
2021/12/18 15:28:26;;;;;;;;;;;21.70;42.40;;;;;;6233938;28;19928;-39
2021/12/18 15:31:27;;;;;;;;;;;22.20;42.70;;;;;;6239497;28;19928;-39
2021/12/18 15:34:29;;;;;;;;;;;21.60;42.30;;;;;;6242942;28;20019;-39
2021/12/18 15:37:30;;;;;;;;;;;21.60;42.30;;;;;;6241511;28;19928;-38
2021/12/18 15:40:32;;;;;;;;;;;21.60;42.40;;;;;;6243883;28;21632;-41
2021/12/18 15:43:33;;;;;;;;;;;21.50;42.20;;;;;;6229165;28;20297;-39
2021/12/18 15:46:35;;;;;;;;;;;21.90;42.30;;;;;;6229791;28;20043;-39
2021/12/18 15:49:36;;;;;;;;;;;21.50;42.30;;;;;;6227358;28;20416;-39
2021/12/18 15:52:37;;;;;;;;;;;21.90;42.50;;;;;;6233143;28;19951;-38
2021/12/18 15:55:40;;;;;;;;;;;21.60;42.40;;;;;;6209733;28;20017;-39
2021/12/18 15:58:43;;;;;;;;;;;21.80;42.40;;;;;;6226267;28;19924;-39
2021/12/18 16:01:45;;;;;;;;;;;22.10;40.10;;;;;;6229405;28;20529;-39
2021/12/18 16:04:46;;;;;;;;;;;21.60;42.30;;;;;;6218971;28;20268;-39
2021/12/18 16:07:48;;;;;;;;;;;21.70;42.40;;;;;;6215215;28;20113;-39
2021/12/18 16:10:50;;;;;;;;;;;21.60;42.40;;;;;;6222342;28;20073;-38
2021/12/18 16:13:51;;;;;;;;;;;21.40;42.00;;;;;;6209662;28;20293;-39
2021/12/18 16:16:53;;;;;;;;;;;21.70;42.10;;;;;;6234797;28;20454;-38
2021/12/18 16:19:55;;;;;;;;;;;21.50;42.30;;;;;;6232093;28;19986;-39
2021/12/18 16:22:56;;;;;;;;;;;21.60;42.10;;;;;;6212785;28;20323;-39
2021/12/18 16:25:58;;;;;;;;;;;21.60;42.40;;;;;;6229534;28;20497;-39
2021/12/18 16:29:02;;;;;;;;;;;21.40;42.20;;;;;;6241087;28;19928;-39
2021/12/18 16:32:03;;;;;;;;;;;21.30;42.00;;;;;;6232847;28;20035;-39
2021/12/18 16:35:05;;;;;;;;;;;21.80;42.20;;;;;;6231572;28;20521;-39
2021/12/18 16:38:24;;;;;;;;;;;21.40;42.10;;;;;;6230108;28;19974;-39
2021/12/18 16:41:27;;;;;;;;;;;21.90;42.50;;;;;;6223484;28;20676;-39
2021/12/18 16:44:30;;;;;;;;;;;21.30;42.00;;;;;;6228150;28;19990;-40
2021/12/18 16:47:31;;;;;;;;;;;22.20;42.50;;;;;;6228686;28;20367;-39
2021/12/18 16:50:34;;;;;;;;;;;21.80;42.50;;;;;;6229613;28;19928;-39
2021/12/18 16:53:36;;;;;;;;;;;21.40;42.00;;;;;;6229403;28;20020;-39
2021/12/18 16:56:38;;;;;;;;;;;21.50;42.10;;;;;;6212841;28;20378;-39
2021/12/18 16:59:39;;;;;;;;;;;21.60;42.20;;;;;;6221304;28;20493;-41
2021/12/18 17:02:40;;;;;;;;;;;22.20;42.60;;;;;;6223899;28;20537;-39
2021/12/18 17:05:44;;;;;;;;;;;21.60;42.20;;;;;;6227037;28;20235;-39
2021/12/18 17:08:45;;;;;;;;;;;21.50;42.20;;;;;;6225800;28;20113;-39
2021/12/18 17:11:47;;;;;;;;;;;21.70;42.50;;;;;;6227230;28;20286;-39
2021/12/18 17:14:48;;;;;;;;;;;21.70;42.40;;;;;;6226331;28;20660;-39
2021/12/18 17:17:50;;;;;;;;;;;21.80;42.40;;;;;;6225772;28;20194;-39
2021/12/18 17:20:51;;;;;;;;;;;21.60;41.80;;;;;;6229677;28;20062;-39
2021/12/18 17:23:52;;;;;;;;;;;21.50;42.30;;;;;;6222980;28;20394;-38
2021/12/18 17:26:54;;;;;;;;;;;21.80;42.60;;;;;;6228000;28;19930;-39
2021/12/18 17:29:56;;;;;;;;;;;21.30;42.10;;;;;;6228911;28;20522;-39
2021/12/18 17:32:57;;;;;;;;;;;21.90;42.40;;;;;;6229030;28;20227;-39
2021/12/18 17:35:59;;;;;;;;;;;21.70;42.60;;;;;;6227854;28;20608;-38
2021/12/18 17:39:01;;;;;;;;;;;21.30;42.50;;;;;;6227253;28;20340;-39
2021/12/18 17:42:04;;;;;;;;;;;21.70;42.60;;;;;;6228524;28;19958;-39
2021/12/18 17:45:06;;;;;;;;;;;21.70;42.60;;;;;;6233865;28;20054;-39
2021/12/18 17:48:07;;;;;;;;;;;21.40;42.30;;;;;;6232904;28;20104;-39
2021/12/18 17:51:09;;;;;;;;;;;21.40;42.40;;;;;;6202747;28;20274;-39
2021/12/18 17:54:10;;;;;;;;;;;21.70;42.50;;;;;;6199696;28;20299;-38
2021/12/18 17:57:13;;;;;;;;;;;21.50;42.70;;;;;;6223801;28;19974;-39
2021/12/18 18:00:16;;;;;;;;;;;21.30;42.60;;;;;;6223712;28;20487;-39
2021/12/18 18:03:20;;;;;;;;;;;21.80;42.70;;;;;;6228133;28;19928;-39
2021/12/18 18:06:22;;;;;;;;;;;21.70;43.60;;;;;;6230954;28;19991;-38
2021/12/18 18:09:29;;;;;;;;;;;21.20;42.60;;;;;;6224659;28;20023;-39
2021/12/18 18:12:31;;;;;;;;;;;21.40;42.80;;;;;;6223243;28;19928;-39
2021/12/18 18:15:33;;;;;;;;;;;21.40;42.80;;;;;;6228225;28;20037;-39
2021/12/18 18:18:34;;;;;;;;;;;21.20;42.60;;;;;;6226972;28;19966;-39
2021/12/18 18:21:35;;;;;;;;;;;21.10;42.70;;;;;;6225206;28;20490;-38
2021/12/18 18:24:37;;;;;;;;;;;21.20;42.80;;;;;;6227006;28;20010;-39